KSWF

Stewart International Airport

New York, New York, USA
KSWF 182107Z 1821/1924 35007KT P6SM SCT060 FM190100 33005KT P6SM SCT060 FM191000 03004KT P6SM SKC FM191800 VRB04KT P6SM SKC AMD NOT SKED
Issued Valid From Valid To
Jul-18 @ 21:07 UTC
(an hour ago)
Jul-18 @ 21:00 UTC
(2 hours ago)
Jul-20 @ 00:00 UTC
(-1 days ago)
Jul-18 @ 21:00 to Jul-19 @ 01:00
KSWF 182107Z 1821/1924 35007KT P6SM SCT060
Wind Visibility Clouds
350° at 7 knots Greater than 6 miles
  • Scattered at 6,000' AGL
From Jul-19 @ 01:00 to Jul-19 @ 10:00
FM190100 33005KT P6SM SCT060
Wind Visibility Clouds
330° at 5 knots Greater than 6 miles
  • Scattered at 6,000' AGL
From Jul-19 @ 10:00 to Jul-19 @ 18:00
FM191000 03004KT P6SM SKC
Wind Visibility Clouds
30° at 4 knots Greater than 6 miles
  • Clear skies
From Jul-19 @ 18:00 to Jul-20 @ 00:00
FM191800 VRB04KT P6SM SKC AMD NOT SKED
Wind Visibility Clouds
Variable at 4 knots Greater than 6 miles
  • Clear skies
KSWF 182107Z 1821/1924 35007KT P6SM SCT060 FM190100 33005KT P6SM SCT060 FM191000 03004KT P6SM SKC FM191800 VRB04KT P6SM SKC AMD NOT SKED
Issued Jul-18 @ 21:07 UTC
(an hour ago)
Valid From Jul-18 @ 21:00 UTC
(2 hours ago)
Valid To Jul-20 @ 00:00 UTC
(-1 days ago)
Jul-18 @ 21:00 - Jul-19 @ 01:00
Wind Visibility
350° at 7 knots Greater than 6 miles
Clouds
  • Scattered at 6,000' AGL
From Jul-19 @ 01:00 - Jul-19 @ 10:00
Wind Visibility
330° at 5 knots Greater than 6 miles
Clouds
  • Scattered at 6,000' AGL
From Jul-19 @ 10:00 - Jul-19 @ 18:00
Wind Visibility
30° at 4 knots Greater than 6 miles
Clouds
  • Clear skies
From Jul-19 @ 18:00 - Jul-20 @ 00:00
Wind Visibility
Variable at 4 knots Greater than 6 miles
Clouds
  • Clear skies